Time;durP1;ratioP1;P1;durP2;ratioP2;P2;SDS_P1;SDS_P2;PMS_P1;PMS_P2;Temp;Humidity;BMP_temperature;BMP_pressure;BME280_temperature;BME280_humidity;BME280_pressure;Samples;Min_cycle;Max_cycle;Signal;HPM_P1;HPM_P2
2024/02/20 00:00:14;;;;;;;37.22;6.28;;;7.00;99.90;;;;;;4995495;28;20073;-71
2024/02/20 00:02:42;;;;;;;50.95;8.13;;;7.00;99.90;;;;;;4994820;28;20505;-71
2024/02/20 00:05:11;;;;;;;51.70;9.00;;;7.10;99.90;;;;;;4994741;28;20042;-71
2024/02/20 00:07:40;;;;;;;35.28;8.23;;;6.80;99.90;;;;;;4977774;28;20045;-71
2024/02/20 00:10:13;;;;;;;35.25;6.93;;;6.80;99.90;;;;;;4995803;28;20065;-71
2024/02/20 00:12:42;;;;;;;33.30;7.03;;;7.10;99.90;;;;;;4995121;28;20502;-71
2024/02/20 00:15:08;;;;;;;40.83;7.38;;;6.90;99.90;;;;;;4994663;28;20046;-71
2024/02/20 00:17:37;;;;;;;44.05;8.18;;;6.70;99.90;;;;;;4994815;28;20042;-71
2024/02/20 00:20:06;;;;;;;50.47;8.85;;;6.80;99.90;;;;;;4978089;28;20042;-71
2024/02/20 00:22:33;;;;;;;44.80;7.75;;;6.90;99.90;;;;;;4996261;28;20041;-71
2024/02/20 00:24:59;;;;;;;42.33;7.55;;;6.90;99.90;;;;;;4996027;28;20046;-71
2024/02/20 00:27:24;;;;;;;38.15;8.02;;;6.90;99.90;;;;;;4994311;28;20042;-71
2024/02/20 00:29:50;;;;;;;36.67;7.40;;;6.70;99.90;;;;;;4995878;28;20041;-71
2024/02/20 00:32:17;;;;;;;35.97;6.38;;;6.80;99.90;;;;;;4994141;28;20050;-71
2024/02/20 00:34:43;;;;;;;41.83;6.65;;;6.90;99.90;;;;;;4994463;28;20074;-71
2024/02/20 00:37:09;;;;;;;55.80;10.25;;;6.60;99.90;;;;;;4996134;28;20045;-71
2024/02/20 00:39:35;;;;;;;36.13;6.85;;;6.70;99.90;;;;;;4978934;28;20038;-71
2024/02/20 00:42:01;;;;;;;30.35;6.22;;;6.50;99.90;;;;;;4995195;28;20046;-71
2024/02/20 00:44:28;;;;;;;40.05;7.50;;;6.60;99.90;;;;;;4994028;28;20112;-71
2024/02/20 00:46:53;;;;;;;42.78;9.10;;;6.80;99.90;;;;;;4994963;28;20043;-71
2024/02/20 00:49:19;;;;;;;36.75;7.03;;;6.60;99.90;;;;;;4994455;28;20042;-71
2024/02/20 00:51:44;;;;;;;45.38;7.70;;;6.70;99.90;;;;;;4994992;28;20046;-71
2024/02/20 00:54:10;;;;;;;48.60;7.70;;;6.50;99.90;;;;;;4994522;28;20074;-71
2024/02/20 00:56:36;;;;;;;48.25;8.40;;;6.60;99.90;;;;;;4995606;28;20655;-71
2024/02/20 00:59:05;;;;;;;43.38;9.02;;;6.50;99.90;;;;;;4995202;28;20073;-71
2024/02/20 01:01:31;;;;;;;49.65;8.25;;;6.60;99.90;;;;;;4978610;28;20096;-71
2024/02/20 01:03:56;;;;;;;40.00;9.32;;;6.60;99.90;;;;;;4995580;28;20097;-71
2024/02/20 01:06:22;;;;;;;41.90;8.55;;;6.60;99.90;;;;;;4995812;28;20042;-71
2024/02/20 01:08:48;;;;;;;37.13;7.57;;;6.50;99.90;;;;;;4995498;28;20053;-71
2024/02/20 01:11:13;;;;;;;34.22;8.90;;;6.70;99.90;;;;;;4994438;28;20038;-71
2024/02/20 01:13:39;;;;;;;37.03;7.13;;;6.40;99.90;;;;;;5012860;28;20038;-71
2024/02/20 01:16:05;;;;;;;30.63;6.00;;;6.70;99.90;;;;;;5016397;28;20042;-71
2024/02/20 01:18:31;;;;;;;37.63;7.07;;;6.70;99.90;;;;;;5018133;28;20034;-71
2024/02/20 01:20:57;;;;;;;46.58;8.02;;;6.50;99.90;;;;;;5017582;28;20428;-71
2024/02/20 01:23:22;;;;;;;43.53;8.35;;;6.50;99.90;;;;;;5017440;28;20045;-71
2024/02/20 01:25:48;;;;;;;23.50;5.68;;;6.50;99.90;;;;;;5018886;28;20042;-71
2024/02/20 01:28:14;;;;;;;31.42;7.47;;;6.50;99.90;;;;;;5017310;28;20100;-71
2024/02/20 01:30:41;;;;;;;44.08;7.65;;;6.60;99.90;;;;;;5017366;28;20042;-71
2024/02/20 01:33:07;;;;;;;39.67;7.63;;;6.60;99.90;;;;;;4999927;28;20173;-71
2024/02/20 01:35:34;;;;;;;41.13;7.35;;;6.70;99.90;;;;;;5018697;28;20533;-71
2024/02/20 01:38:00;;;;;;;28.92;5.30;;;6.60;99.90;;;;;;5000689;28;20131;-71
2024/02/20 01:40:26;;;;;;;33.75;7.45;;;6.60;99.90;;;;;;5018981;28;20045;-71
2024/02/20 01:42:56;;;;;;;39.42;6.32;;;6.40;99.90;;;;;;5017842;28;20070;-71
2024/02/20 01:45:24;;;;;;;51.15;7.32;;;6.40;99.90;;;;;;5017235;28;20121;-71
2024/02/20 01:47:50;;;;;;;29.48;6.53;;;6.50;99.90;;;;;;5018779;28;20069;-71
2024/02/20 01:50:16;;;;;;;38.38;6.07;;;6.70;99.90;;;;;;5018006;28;20038;-71
2024/02/20 01:52:43;;;;;;;35.53;5.75;;;6.40;99.90;;;;;;5000000;28;20042;-73
2024/02/20 01:55:11;;;;;;;40.10;9.18;;;6.50;99.90;;;;;;5018044;28;20041;-73
2024/02/20 01:57:38;;;;;;;30.10;6.70;;;6.70;99.90;;;;;;5018225;28;20038;-72
2024/02/20 02:00:05;;;;;;;39.83;8.38;;;6.50;99.90;;;;;;5017171;28;20038;-72
2024/02/20 02:02:31;;;;;;;36.28;6.60;;;6.70;99.90;;;;;;5000819;28;20034;-72
2024/02/20 02:04:57;;;;;;;36.88;6.97;;;6.40;99.90;;;;;;4983871;28;20045;-72
2024/02/20 02:07:23;;;;;;;36.63;5.60;;;6.60;99.90;;;;;;5016775;28;20111;-72
2024/02/20 02:09:49;;;;;;;34.47;6.45;;;6.40;99.90;;;;;;5016533;28;20160;-72
2024/02/20 02:12:14;;;;;;;44.35;6.97;;;6.70;99.90;;;;;;5017597;28;20038;-73
2024/02/20 02:14:45;;;;;;;33.55;6.30;;;6.50;99.90;;;;;;5016979;28;20038;-70
2024/02/20 02:17:11;;;;;;;37.55;6.15;;;6.50;99.90;;;;;;5017689;28;20045;-70
2024/02/20 02:19:37;;;;;;;30.20;4.97;;;6.80;99.90;;;;;;5017040;28;20116;-70
2024/02/20 02:22:04;;;;;;;34.80;7.18;;;6.70;99.90;;;;;;5000100;28;20113;-70
2024/02/20 02:24:30;;;;;;;34.92;6.50;;;6.50;99.90;;;;;;5016540;28;20045;-70
2024/02/20 02:26:55;;;;;;;36.67;6.75;;;6.50;99.90;;;;;;5015366;28;20041;-70
2024/02/20 02:29:21;;;;;;;30.38;5.90;;;6.50;99.90;;;;;;5015888;28;20037;-70
2024/02/20 02:31:47;;;;;;;23.50;6.22;;;6.50;99.90;;;;;;4998662;28;20091;-70
2024/02/20 02:34:13;;;;;;;40.42;6.88;;;6.40;99.90;;;;;;5016221;28;20117;-70
2024/02/20 02:36:38;;;;;;;38.65;6.85;;;6.70;99.90;;;;;;5016584;28;20041;-70
2024/02/20 02:39:04;;;;;;;38.10;7.97;;;6.60;99.90;;;;;;5015826;28;20038;-70
2024/02/20 02:41:30;;;;;;;37.65;7.20;;;6.60;99.90;;;;;;5015324;28;20456;-70
2024/02/20 02:43:56;;;;;;;30.50;6.28;;;6.40;99.90;;;;;;5015945;28;20045;-70
2024/02/20 02:46:22;;;;;;;35.38;5.88;;;6.40;99.90;;;;;;5015673;28;20100;-72
2024/02/20 02:48:49;;;;;;;27.15;6.15;;;6.70;99.90;;;;;;5015592;28;20077;-72
2024/02/20 02:51:15;;;;;;;37.50;6.28;;;6.60;99.90;;;;;;5015509;28;20042;-72
2024/02/20 02:53:41;;;;;;;30.27;6.50;;;6.70;99.90;;;;;;5015871;28;20103;-72
2024/02/20 02:56:14;;;;;;;34.55;6.53;;;6.60;99.90;;;;;;5016615;28;20046;-72
2024/02/20 02:58:40;;;;;;;27.83;5.60;;;6.40;99.90;;;;;;4998598;28;20089;-72
2024/02/20 03:01:09;;;;;;;27.85;5.43;;;6.40;99.90;;;;;;4999240;28;20069;-72
2024/02/20 03:03:35;;;;;;;47.15;6.93;;;6.40;99.90;;;;;;5016319;28;20049;-72
2024/02/20 03:06:08;;;;;;;35.40;6.75;;;6.50;99.90;;;;;;5015795;28;20045;-72
2024/02/20 03:08:37;;;;;;;35.88;5.35;;;6.60;99.90;;;;;;5016935;28;20046;-72
2024/02/20 03:11:07;;;;;;;33.35;6.18;;;6.50;99.90;;;;;;5016486;28;20180;-72
2024/02/20 03:13:33;;;;;;;35.45;6.95;;;6.70;99.90;;;;;;4998465;28;20199;-72
2024/02/20 03:16:04;;;;;;;28.30;6.05;;;6.40;99.90;;;;;;5015182;28;20056;-70
2024/02/20 03:18:35;;;;;;;36.33;7.22;;;6.30;99.90;;;;;;4996833;28;20413;-70
2024/02/20 03:21:00;;;;;;;31.23;4.90;;;6.60;99.90;;;;;;5014134;28;20041;-70
2024/02/20 03:23:30;;;;;;;35.72;6.00;;;6.40;99.90;;;;;;5014446;28;20041;-69
2024/02/20 03:25:56;;;;;;;29.58;6.28;;;6.40;99.90;;;;;;5015041;28;20049;-69
2024/02/20 03:28:22;;;;;;;32.22;7.18;;;6.50;99.90;;;;;;5014163;28;20046;-70
2024/02/20 03:30:48;;;;;;;31.48;6.07;;;6.60;99.90;;;;;;5015299;28;20049;-70
2024/02/20 03:33:14;;;;;;;33.15;6.78;;;6.30;99.90;;;;;;5014033;28;20033;-70
2024/02/20 03:35:40;;;;;;;29.88;5.55;;;6.30;99.90;;;;;;5014496;28;20085;-70
2024/02/20 03:38:06;;;;;;;32.75;6.43;;;6.50;99.90;;;;;;5014789;28;20045;-70
2024/02/20 03:40:31;;;;;;;37.70;7.10;;;6.30;99.90;;;;;;5014559;28;20034;-70
2024/02/20 03:42:58;;;;;;;29.05;5.07;;;6.30;99.90;;;;;;5014487;28;20030;-70
2024/02/20 03:45:24;;;;;;;32.03;6.50;;;6.50;99.90;;;;;;5014193;28;20052;-70
2024/02/20 03:47:50;;;;;;;37.15;5.13;;;6.30;99.90;;;;;;5014328;28;20042;-69
2024/02/20 03:50:15;;;;;;;31.65;5.93;;;6.50;99.90;;;;;;5015135;28;20042;-70
2024/02/20 03:52:41;;;;;;;31.63;5.97;;;6.20;99.90;;;;;;5015738;28;20057;-70
2024/02/20 03:55:08;;;;;;;21.10;5.22;;;6.40;99.90;;;;;;5015389;28;20049;-70
2024/02/20 03:57:34;;;;;;;39.30;5.25;;;6.20;99.90;;;;;;4997289;28;20034;-70
2024/02/20 03:59:59;;;;;;;21.13;4.80;;;6.40;99.90;;;;;;5015114;28;20041;-70
2024/02/20 04:02:26;;;;;;;27.60;4.60;;;6.40;99.90;;;;;;5015238;28;20525;-70
2024/02/20 04:04:52;;;;;;;21.90;5.38;;;6.30;99.90;;;;;;4996840;28;20040;-70
2024/02/20 04:07:18;;;;;;;22.95;4.30;;;6.10;99.90;;;;;;5014975;28;20082;-69
2024/02/20 04:09:44;;;;;;;22.40;5.25;;;6.00;99.90;;;;;;5014982;28;20045;-70
2024/02/20 04:12:09;;;;;;;28.85;5.63;;;6.10;99.90;;;;;;5015259;28;20041;-70
2024/02/20 04:14:35;;;;;;;34.95;6.13;;;6.00;99.90;;;;;;5014753;28;20046;-70
2024/02/20 04:17:00;;;;;;;28.02;5.22;;;6.20;99.90;;;;;;5014603;28;20425;-70
2024/02/20 04:19:26;;;;;;;38.08;8.13;;;6.30;99.90;;;;;;5014242;28;20038;-70
2024/02/20 04:21:52;;;;;;;33.78;5.10;;;6.10;99.90;;;;;;5015234;28;20034;-70
2024/02/20 04:24:17;;;;;;;23.10;4.75;;;6.30;99.90;;;;;;5013933;28;20550;-71
2024/02/20 04:26:43;;;;;;;27.05;5.78;;;6.20;99.90;;;;;;5014381;28;20422;-71
2024/02/20 04:29:08;;;;;;;27.25;5.68;;;6.30;99.90;;;;;;5014089;28;20072;-71
2024/02/20 04:31:34;;;;;;;25.75;4.85;;;6.00;99.90;;;;;;4997284;28;20100;-71
2024/02/20 04:34:00;;;;;;;25.67;5.32;;;6.10;99.90;;;;;;5013337;28;20466;-69
2024/02/20 04:36:25;;;;;;;32.35;5.57;;;5.90;99.90;;;;;;5011611;28;20041;-69
2024/02/20 04:38:56;;;;;;;21.27;6.45;;;5.90;99.90;;;;;;5011649;28;20073;-71
2024/02/20 04:41:28;;;;;;;32.60;5.60;;;6.20;99.90;;;;;;5011675;28;20060;-69
2024/02/20 04:43:54;;;;;;;26.48;5.00;;;5.90;99.90;;;;;;5011672;28;20398;-69
2024/02/20 04:46:20;;;;;;;37.08;6.10;;;6.00;99.90;;;;;;5011630;28;20064;-69
2024/02/20 04:48:46;;;;;;;23.90;4.43;;;6.20;99.90;;;;;;5011867;28;20049;-69
2024/02/20 04:51:12;;;;;;;26.77;5.18;;;5.90;99.90;;;;;;5013960;28;20046;-69
2024/02/20 04:53:38;;;;;;;29.00;4.32;;;6.30;99.90;;;;;;5015872;28;20087;-69
2024/02/20 04:56:04;;;;;;;34.08;5.43;;;6.10;99.90;;;;;;5015647;28;20049;-70
2024/02/20 04:58:30;;;;;;;30.02;5.90;;;6.00;99.90;;;;;;5015586;28;20505;-69
2024/02/20 05:00:55;;;;;;;26.80;7.82;;;6.20;99.90;;;;;;5015399;28;20049;-69
2024/02/20 05:03:21;;;;;;;22.15;5.53;;;5.90;99.90;;;;;;5015495;28;20390;-69
2024/02/20 05:05:47;;;;;;;23.95;4.90;;;5.80;99.90;;;;;;5007216;28;20046;-69
2024/02/20 05:08:12;;;;;;;28.73;5.40;;;6.00;99.90;;;;;;4995810;28;20042;-69
2024/02/20 05:10:38;;;;;;;35.63;7.03;;;6.00;99.90;;;;;;4995562;28;20038;-69
2024/02/20 05:13:04;;;;;;;36.83;5.82;;;5.80;99.90;;;;;;4995777;28;20046;-69
2024/02/20 05:15:29;;;;;;;32.92;5.72;;;6.00;99.90;;;;;;4995544;28;20100;-69
2024/02/20 05:17:55;;;;;;;25.98;4.68;;;5.90;99.90;;;;;;4995830;28;20069;-69
2024/02/20 05:20:22;;;;;;;32.67;5.97;;;5.90;99.90;;;;;;4978271;28;20491;-69
2024/02/20 05:22:48;;;;;;;27.83;7.85;;;5.90;99.90;;;;;;4995466;28;20034;-69
2024/02/20 05:25:14;;;;;;;31.52;4.85;;;6.10;99.90;;;;;;4995431;28;20537;-69
2024/02/20 05:27:40;;;;;;;28.38;5.72;;;6.00;99.90;;;;;;4995563;28;20043;-69
2024/02/20 05:30:06;;;;;;;32.03;5.10;;;6.20;99.90;;;;;;4995162;28;20035;-69
2024/02/20 05:32:31;;;;;;;22.13;6.45;;;5.90;99.90;;;;;;4995674;28;20104;-69
2024/02/20 05:34:57;;;;;;;34.85;6.35;;;6.20;99.90;;;;;;4995232;28;20472;-69
2024/02/20 05:37:23;;;;;;;30.98;6.10;;;6.00;99.90;;;;;;4995388;28;20119;-69
2024/02/20 05:39:49;;;;;;;22.65;5.95;;;6.30;99.90;;;;;;4977972;28;20223;-69
2024/02/20 05:42:14;;;;;;;29.20;6.85;;;6.40;99.90;;;;;;4995138;28;20046;-69
2024/02/20 05:44:40;;;;;;;27.48;5.13;;;6.20;99.90;;;;;;4995044;28;20039;-69
2024/02/20 05:47:06;;;;;;;41.45;7.18;;;6.40;99.90;;;;;;4995365;28;20047;-70
2024/02/20 05:49:32;;;;;;;25.35;5.80;;;6.20;99.90;;;;;;4995073;28;20042;-69
2024/02/20 05:51:58;;;;;;;26.60;4.85;;;6.20;99.90;;;;;;4994817;28;20161;-69
2024/02/20 05:54:24;;;;;;;29.85;6.80;;;6.10;99.90;;;;;;4994940;28;20099;-69
2024/02/20 05:56:50;;;;;;;34.00;6.53;;;6.20;99.90;;;;;;4994967;28;20498;-69
2024/02/20 05:59:16;;;;;;;39.15;7.68;;;6.40;99.90;;;;;;4994813;28;20528;-69
2024/02/20 06:01:41;;;;;;;24.50;5.13;;;6.10;99.90;;;;;;4994497;28;20565;-70
2024/02/20 06:04:07;;;;;;;32.45;5.75;;;6.20;99.90;;;;;;4995038;28;20066;-69
2024/02/20 06:06:34;;;;;;;31.85;5.75;;;6.10;99.90;;;;;;4994861;28;20041;-69
2024/02/20 06:09:00;;;;;;;20.92;5.20;;;6.30;99.90;;;;;;4994732;28;20042;-69
2024/02/20 06:11:27;;;;;;;34.13;6.28;;;6.20;99.90;;;;;;4994616;28;20039;-70
2024/02/20 06:13:53;;;;;;;29.13;6.20;;;6.20;99.90;;;;;;4977349;28;20053;-69
2024/02/20 06:16:20;;;;;;;31.33;4.60;;;6.20;99.90;;;;;;4994726;28;20042;-69
2024/02/20 06:18:46;;;;;;;29.83;5.45;;;6.40;99.90;;;;;;4977018;28;20039;-69
2024/02/20 06:21:11;;;;;;;33.17;6.28;;;6.50;99.90;;;;;;4994600;28;20088;-70
2024/02/20 06:23:44;;;;;;;31.88;5.07;;;6.20;99.90;;;;;;4994500;28;20042;-69
2024/02/20 06:26:09;;;;;;;23.10;4.80;;;6.30;99.90;;;;;;4976886;28;20045;-70
2024/02/20 06:28:35;;;;;;;27.55;6.03;;;6.20;99.90;;;;;;4994355;28;20030;-69
2024/02/20 06:31:03;;;;;;;34.38;7.35;;;6.40;99.90;;;;;;4994258;28;20034;-69
2024/02/20 06:33:32;;;;;;;30.45;6.00;;;6.50;99.90;;;;;;4994061;28;20574;-69
2024/02/20 06:35:58;;;;;;;28.10;5.82;;;6.30;99.90;;;;;;4976687;28;20047;-69
2024/02/20 06:38:25;;;;;;;29.38;6.38;;;6.30;99.90;;;;;;4993970;28;20410;-69
2024/02/20 06:40:50;;;;;;;29.42;5.07;;;6.30;99.90;;;;;;4993816;28;20521;-69
2024/02/20 06:43:16;;;;;;;25.15;5.40;;;6.60;99.90;;;;;;4976629;28;20042;-69
2024/02/20 06:45:41;;;;;;;33.65;6.20;;;6.40;99.90;;;;;;4976658;28;20045;-69
2024/02/20 06:48:07;;;;;;;37.80;6.07;;;6.60;99.90;;;;;;4976362;28;20050;-70
2024/02/20 06:50:33;;;;;;;34.47;5.28;;;6.40;99.90;;;;;;4993788;28;20042;-70
2024/02/20 06:52:58;;;;;;;27.60;4.93;;;6.80;99.90;;;;;;4993511;28;20117;-70
2024/02/20 06:55:24;;;;;;;32.97;5.38;;;6.70;99.90;;;;;;4993620;28;20082;-70
2024/02/20 06:57:54;;;;;;;33.08;5.90;;;6.50;99.90;;;;;;4976560;28;20557;-70
2024/02/20 07:00:20;;;;;;;32.28;5.95;;;6.60;99.90;;;;;;4993666;28;20046;-69
2024/02/20 07:02:46;;;;;;;33.22;5.90;;;6.60;99.90;;;;;;4993817;28;20043;-69
2024/02/20 07:05:12;;;;;;;28.33;6.05;;;6.90;99.90;;;;;;4993693;28;20125;-70
2024/02/20 07:07:39;;;;;;;26.77;5.90;;;6.60;99.90;;;;;;4976139;28;20045;-69
2024/02/20 07:10:08;;;;;;;29.85;6.65;;;6.60;99.90;;;;;;4975920;28;20049;-69
2024/02/20 07:12:34;;;;;;;43.00;7.10;;;6.80;99.90;;;;;;4975739;28;20526;-70
2024/02/20 07:15:07;;;;;;;18.42;4.88;;;6.70;99.90;;;;;;4975723;28;20061;-69
2024/02/20 07:17:36;;;;;;;24.85;4.60;;;6.70;99.90;;;;;;4976107;28;20061;-70
2024/02/20 07:20:03;;;;;;;28.83;5.45;;;7.10;99.90;;;;;;4975943;28;20057;-70
2024/02/20 07:22:30;;;;;;;30.92;5.40;;;6.90;99.90;;;;;;4993237;28;20065;-69
2024/02/20 07:24:57;;;;;;;42.63;7.22;;;6.90;99.90;;;;;;4993495;28;20042;-70
2024/02/20 07:27:22;;;;;;;24.27;5.97;;;6.90;99.90;;;;;;4993424;28;20034;-69
2024/02/20 07:29:49;;;;;;;24.30;5.15;;;6.90;99.90;;;;;;4975818;28;20104;-70
2024/02/20 07:32:15;;;;;;;28.60;6.00;;;6.90;99.90;;;;;;4975667;28;20561;-70
2024/02/20 07:34:41;;;;;;;40.65;7.47;;;7.00;99.90;;;;;;4993062;28;20038;-69
2024/02/20 07:37:07;;;;;;;30.52;6.82;;;7.30;99.90;;;;;;4992957;28;20486;-69
2024/02/20 07:39:33;;;;;;;47.95;6.97;;;6.90;99.90;;;;;;4992993;28;20039;-70
2024/02/20 07:41:58;;;;;;;28.50;5.65;;;7.20;99.90;;;;;;4993092;28;20110;-69
2024/02/20 07:44:25;;;;;;;24.40;5.22;;;7.20;99.90;;;;;;4993114;28;20450;-69
2024/02/20 07:46:51;;;;;;;31.77;6.35;;;7.00;99.90;;;;;;4993076;28;20418;-69
2024/02/20 07:49:16;;;;;;;39.85;5.63;;;7.10;99.90;;;;;;4992907;28;20038;-70
2024/02/20 07:51:42;;;;;;;32.70;7.13;;;7.30;99.90;;;;;;4992586;28;20035;-69
2024/02/20 07:54:08;;;;;;;25.02;6.30;;;7.10;99.90;;;;;;4992955;28;20042;-70
2024/02/20 07:56:33;;;;;;;28.10;6.03;;;7.40;99.90;;;;;;4992708;28;20046;-69
2024/02/20 07:58:59;;;;;;;25.50;6.22;;;7.40;99.90;;;;;;4992803;28;20038;-70
2024/02/20 08:01:25;;;;;;;35.55;5.88;;;7.20;99.90;;;;;;4992640;28;20061;-69
2024/02/20 08:03:53;;;;;;;29.30;5.30;;;7.40;99.90;;;;;;4992566;28;20034;-70
2024/02/20 08:06:22;;;;;;;30.17;5.28;;;7.30;99.90;;;;;;4975306;28;20410;-69
2024/02/20 08:08:48;;;;;;;34.47;7.82;;;7.50;99.90;;;;;;4992817;28;20065;-69
2024/02/20 08:11:14;;;;;;;30.25;6.50;;;7.40;99.90;;;;;;4992431;28;20391;-69
2024/02/20 08:13:45;;;;;;;34.53;7.07;;;7.60;99.90;;;;;;4992619;28;20042;-70
2024/02/20 08:16:11;;;;;;;28.95;6.57;;;7.60;99.90;;;;;;4992396;28;20053;-70
2024/02/20 08:18:40;;;;;;;30.95;6.28;;;7.70;99.90;;;;;;4992345;28;20387;-69
2024/02/20 08:21:12;;;;;;;40.95;9.02;;;7.60;99.90;;;;;;4992421;28;20070;-70
2024/02/20 08:23:38;;;;;;;32.20;7.03;;;7.70;99.90;;;;;;4992521;28;20050;-70
2024/02/20 08:26:04;;;;;;;37.67;7.25;;;7.40;99.90;;;;;;4975087;28;20499;-70
2024/02/20 08:28:31;;;;;;;42.97;9.13;;;7.50;99.90;;;;;;4992187;28;20084;-70
2024/02/20 08:30:57;;;;;;;36.83;6.55;;;7.60;99.90;;;;;;4992203;28;20046;-70
2024/02/20 08:33:23;;;;;;;32.38;8.13;;;7.50;99.90;;;;;;4974815;28;20092;-69
2024/02/20 08:35:49;;;;;;;38.15;7.32;;;7.50;99.90;;;;;;4992266;28;20038;-69
2024/02/20 08:38:15;;;;;;;37.90;7.97;;;7.50;99.90;;;;;;4992084;28;20046;-70
2024/02/20 08:40:42;;;;;;;35.78;6.78;;;7.80;99.90;;;;;;4991989;28;20487;-70
2024/02/20 08:43:07;;;;;;;41.03;7.93;;;7.80;99.90;;;;;;4974832;28;20041;-70
2024/02/20 08:45:33;;;;;;;35.53;7.40;;;7.70;99.90;;;;;;4985917;28;20035;-69
2024/02/20 08:48:01;;;;;;;46.95;7.38;;;7.70;99.90;;;;;;4982472;28;20034;-69
2024/02/20 08:50:27;;;;;;;30.48;7.70;;;7.80;99.90;;;;;;4979658;28;20054;-70
2024/02/20 08:52:53;;;;;;;32.63;7.57;;;8.00;99.90;;;;;;4981973;28;20162;-70
2024/02/20 08:55:19;;;;;;;40.65;8.95;;;8.00;99.90;;;;;;4957790;28;20114;-69
2024/02/20 08:57:44;;;;;;;38.38;7.47;;;7.90;99.90;;;;;;4972563;28;20046;-70
2024/02/20 09:00:12;;;;;;;37.05;8.50;;;8.00;99.90;;;;;;4955081;28;20039;-69
2024/02/20 09:02:41;;;;;;;35.38;9.38;;;8.20;99.90;;;;;;4955408;28;20431;-70
2024/02/20 09:05:11;;;;;;;43.75;9.80;;;8.10;99.90;;;;;;4972260;28;20510;-70
2024/02/20 09:07:36;;;;;;;39.58;9.63;;;8.10;99.90;;;;;;4972684;28;20118;-70
2024/02/20 09:10:06;;;;;;;31.73;11.00;;;8.20;99.90;;;;;;4972260;28;20537;-70
2024/02/20 09:12:33;;;;;;;42.97;9.90;;;8.40;99.90;;;;;;4972511;28;20046;-70
2024/02/20 09:15:00;;;;;;;43.50;11.00;;;8.20;99.90;;;;;;4972271;28;20502;-69
2024/02/20 09:17:26;;;;;;;31.83;10.30;;;8.50;99.90;;;;;;4972758;28;20130;-70
2024/02/20 09:19:52;;;;;;;35.38;9.98;;;8.50;99.90;;;;;;4972479;28;20074;-70
2024/02/20 09:22:18;;;;;;;43.10;9.52;;;8.50;99.90;;;;;;4972197;28;20077;-70
2024/02/20 09:24:45;;;;;;;31.25;10.48;;;8.50;99.90;;;;;;4972302;28;20035;-70
2024/02/20 09:27:11;;;;;;;38.08;10.05;;;8.50;99.90;;;;;;4972295;28;20055;-70
2024/02/20 09:29:37;;;;;;;38.92;10.18;;;8.60;99.90;;;;;;4972191;28;20038;-69
2024/02/20 09:32:03;;;;;;;31.35;10.48;;;8.60;99.90;;;;;;4972374;28;20402;-70
2024/02/20 09:34:29;;;;;;;39.08;13.60;;;8.60;99.90;;;;;;4955023;28;20050;-70
2024/02/20 09:36:55;;;;;;;48.78;12.23;;;8.60;99.90;;;;;;4983705;28;20038;-70
2024/02/20 09:39:25;;;;;;;40.92;12.13;;;8.60;99.90;;;;;;4985309;28;20039;-69
2024/02/20 09:41:51;;;;;;;40.22;11.18;;;8.90;99.90;;;;;;4980896;28;20065;-70
2024/02/20 09:44:20;;;;;;;38.92;12.38;;;8.70;99.90;;;;;;4975570;28;20085;-70
2024/02/20 09:46:54;;;;;;;40.13;12.75;;;8.80;99.90;;;;;;4975756;28;20035;-71
2024/02/20 09:49:20;;;;;;;49.63;12.65;;;8.80;99.90;;;;;;4958328;28;20193;-70
2024/02/20 09:51:49;;;;;;;47.55;11.02;;;9.00;99.90;;;;;;4975534;28;20055;-70
2024/02/20 09:54:15;;;;;;;53.70;13.70;;;9.00;99.90;;;;;;4958027;28;20058;-69
2024/02/20 09:56:42;;;;;;;40.13;11.20;;;9.00;99.90;;;;;;4975372;28;20042;-70
2024/02/20 09:59:09;;;;;;;43.00;11.60;;;8.90;99.90;;;;;;4975631;28;20039;-70
2024/02/20 10:01:36;;;;;;;41.47;12.85;;;9.00;99.90;;;;;;4975479;28;20462;-70
2024/02/20 10:04:04;;;;;;;39.05;11.43;;;8.90;99.90;;;;;;4960368;28;20030;-70
2024/02/20 10:06:30;;;;;;;44.05;11.32;;;9.10;99.90;;;;;;4977931;28;20070;-69
2024/02/20 10:08:57;;;;;;;44.50;11.27;;;8.90;99.90;;;;;;4980322;28;20409;-70
2024/02/20 10:11:22;;;;;;;44.97;10.02;;;9.10;99.90;;;;;;4966336;28;20039;-70
2024/02/20 10:13:52;;;;;;;44.78;13.13;;;9.00;99.90;;;;;;4981713;28;20097;-70
2024/02/20 10:16:18;;;;;;;50.03;12.38;;;9.20;99.90;;;;;;4957712;28;20057;-70
2024/02/20 10:18:55;;;;;;;38.13;11.93;;;9.10;99.90;;;;;;4957671;28;20070;-70
2024/02/20 10:21:20;;;;;;;50.38;11.70;;;9.20;99.90;;;;;;4957921;28;20038;-70
2024/02/20 10:23:47;;;;;;;35.58;11.48;;;9.00;99.90;;;;;;4957664;28;20098;-70
2024/02/20 10:26:19;;;;;;;43.30;10.38;;;9.10;99.90;;;;;;4975273;28;20039;-70
2024/02/20 10:28:45;;;;;;;28.50;10.23;;;9.00;99.90;;;;;;4941637;28;20121;-70
2024/02/20 10:31:11;;;;;;;38.35;10.15;;;9.20;99.90;;;;;;4974917;28;20489;-70
2024/02/20 10:33:38;;;;;;;40.55;10.57;;;9.00;99.90;;;;;;4974687;28;20081;-70
2024/02/20 10:36:04;;;;;;;42.65;12.45;;;9.20;99.90;;;;;;4975025;28;20043;-70
2024/02/20 10:38:30;;;;;;;35.65;11.63;;;9.10;99.90;;;;;;4974817;28;20045;-70
2024/02/20 10:40:58;;;;;;;37.17;9.55;;;9.10;99.90;;;;;;4974999;28;20480;-70
2024/02/20 10:43:25;;;;;;;34.10;10.85;;;9.10;99.90;;;;;;4975102;28;20513;-71
2024/02/20 10:45:51;;;;;;;37.40;10.10;;;9.30;99.90;;;;;;4957795;28;20058;-70
2024/02/20 10:48:26;;;;;;;33.65;10.82;;;9.20;99.90;;;;;;4956786;28;20481;-71
2024/02/20 10:50:52;;;;;;;34.63;9.80;;;9.20;99.90;;;;;;4957843;28;20487;-70
2024/02/20 10:53:19;;;;;;;35.83;9.20;;;9.30;99.90;;;;;;4957666;28;20522;-70
2024/02/20 10:55:46;;;;;;;39.28;9.50;;;9.30;99.90;;;;;;4974601;28;20061;-70
2024/02/20 10:58:16;;;;;;;27.90;9.35;;;9.30;99.90;;;;;;4974607;28;20047;-71
2024/02/20 11:00:46;;;;;;;33.28;10.32;;;9.40;99.90;;;;;;4941066;28;20070;-70
2024/02/20 11:03:13;;;;;;;35.65;10.23;;;9.60;99.90;;;;;;4974293;28;20050;-71
2024/02/20 11:05:39;;;;;;;31.25;9.82;;;9.60;99.90;;;;;;4974312;28;20462;-70
2024/02/20 11:08:09;;;;;;;31.80;11.63;;;9.50;99.90;;;;;;4956967;28;20051;-70
2024/02/20 11:10:35;;;;;;;35.25;10.40;;;9.60;99.90;;;;;;4956772;28;20031;-71
2024/02/20 11:13:20;;;;;;;38.53;11.23;;;9.70;99.90;;;;;;4974100;28;20045;-70
2024/02/20 11:15:46;;;;;;;32.53;10.85;;;9.80;99.90;;;;;;4974007;28;20042;-70
2024/02/20 11:18:16;;;;;;;49.95;12.75;;;9.90;99.90;;;;;;4973940;28;20042;-70
2024/02/20 11:20:43;;;;;;;39.80;12.02;;;9.90;99.90;;;;;;4956884;28;20042;-70
2024/02/20 11:23:09;;;;;;;36.13;11.23;;;10.00;99.90;;;;;;4974116;28;20102;-70
2024/02/20 11:25:37;;;;;;;34.95;11.40;;;10.00;99.90;;;;;;4973949;28;20046;-70
2024/02/20 11:28:16;;;;;;;40.03;10.98;;;10.20;99.90;;;;;;4973901;28;20046;-71
2024/02/20 11:30:43;;;;;;;40.65;11.73;;;10.20;99.90;;;;;;4973911;28;20035;-70
2024/02/20 11:33:16;;;;;;;42.33;11.63;;;10.30;99.90;;;;;;4973864;28;20126;-70
2024/02/20 11:35:44;;;;;;;49.30;12.15;;;10.20;99.90;;;;;;4973927;28;20444;-71
2024/02/20 11:38:11;;;;;;;30.45;11.00;;;10.20;99.90;;;;;;4973864;28;20102;-70
2024/02/20 11:40:37;;;;;;;34.70;9.68;;;10.20;99.90;;;;;;4973632;28;20106;-70
2024/02/20 11:43:05;;;;;;;27.63;8.52;;;10.20;99.90;;;;;;4976936;28;20034;-71
2024/02/20 11:45:33;;;;;;;37.63;11.10;;;10.20;99.90;;;;;;4965112;28;20038;-71
2024/02/20 11:48:09;;;;;;;35.45;10.60;;;10.20;99.90;;;;;;4983655;28;20034;-71
2024/02/20 11:50:40;;;;;;;37.67;10.27;;;10.10;99.90;;;;;;4966278;28;20046;-71
2024/02/20 11:53:14;;;;;;;35.17;10.43;;;10.10;99.90;;;;;;4982717;28;20611;-70
2024/02/20 11:55:41;;;;;;;32.75;8.88;;;10.10;99.90;;;;;;4963584;28;20070;-70
2024/02/20 11:58:08;;;;;;;41.03;10.55;;;10.00;99.90;;;;;;4983626;28;20034;-70
2024/02/20 12:00:38;;;;;;;28.13;10.00;;;10.10;99.90;;;;;;4988872;28;20038;-71
2024/02/20 12:03:05;;;;;;;33.40;10.23;;;10.10;99.90;;;;;;4976353;28;20419;-71
2024/02/20 12:05:41;;;;;;;32.75;8.73;;;10.10;99.90;;;;;;4973585;28;20051;-70
2024/02/20 12:08:18;;;;;;;43.28;10.30;;;10.20;99.90;;;;;;4973539;28;20521;-70
2024/02/20 12:10:46;;;;;;;32.30;9.10;;;10.10;99.90;;;;;;4956149;28;20061;-70
2024/02/20 12:13:14;;;;;;;31.77;11.25;;;10.10;99.90;;;;;;4973335;28;20038;-70
2024/02/20 12:15:41;;;;;;;21.92;8.80;;;10.10;99.90;;;;;;4972949;28;20053;-70
2024/02/20 12:18:09;;;;;;;35.33;9.25;;;10.00;99.90;;;;;;4988166;28;20126;-70
2024/02/20 12:20:34;;;;;;;30.00;9.18;;;10.20;99.90;;;;;;4955570;28;20039;-70
2024/02/20 12:23:00;;;;;;;35.05;8.77;;;10.10;99.90;;;;;;4973137;28;20415;-70
2024/02/20 12:25:25;;;;;;;33.47;9.13;;;10.00;99.90;;;;;;4972996;28;20483;-70
2024/02/20 12:27:53;;;;;;;27.75;7.82;;;10.10;99.90;;;;;;4972969;28;20039;-70
2024/02/20 12:30:19;;;;;;;31.00;7.75;;;10.00;99.90;;;;;;4955562;28;20047;-70
2024/02/20 12:32:44;;;;;;;27.60;7.20;;;10.10;99.90;;;;;;4972959;28;20050;-71
2024/02/20 12:35:10;;;;;;;26.08;7.45;;;10.10;99.90;;;;;;4955400;28;20050;-70
2024/02/20 12:37:36;;;;;;;27.48;7.07;;;10.10;99.90;;;;;;4972750;28;20101;-70
2024/02/20 12:40:04;;;;;;;22.17;6.07;;;10.10;99.90;;;;;;4972624;28;20051;-70